KBOI/BOI METAR and TAF weather

Enter ICAO airport designator
Station Type Date Time Source
KBOI METAR 2018/01/21 11:53 UTC NOAA

KBOI 211153Z 11005KT 10SM CLR M03/M05 A3018 RMK AO2 SLP236 T10281050 10006 21033 51004


Station Type Date Time Source
KBOI Decoded METAR 2018/01/21 11:53 UTC NOAA

BOISE AIR TERMINAL, ID, United States (KBOI) 43-34N 116-14W 875M
Jan 21, 2018 - 06:53 AM EST / 2018.01.21 1153 UTC
Wind: from the ESE (110 degrees) at 6 MPH (5 KT):0
Visibility: 10 mile(s):0
Sky conditions: clear
Temperature: 27.0 F (-2.8 C)
Windchill: 19 F (-7 C):1
Dew Point: 23.0 F (-5.0 C)
Relative Humidity: 84%
Pressure (altimeter): 30.18 in. Hg (1022 hPa)
Pressure tendency: 0.01 inches (0.4 hPa) higher than three hours ago
ob: KBOI 211153Z 11005KT 10SM CLR M03/M05 A3018 RMK AO2 SLP236 T10281050 10006 21033 51004
cycle: 12

Station Type Date Time Source
KBOI TAF 2018/01/21 12:27 UTC NOAA

TAF KBOI 211124Z 2112/2212 VRB03KT P6SM BKN080
FM211900 13007KT P6SM BKN120
FM220300 13010KT 5SM -SN BR OVC030
FM220900 13012KT 2SM -SN BR OVC007


Example: see airport list